sensor_id;sensor_type;location;lat;lon;timestamp;temperature;humidity
7159;DHT22;63175;52.374;13.132;2022-11-04T00:00:08;9.80;99.90
7159;DHT22;63175;52.374;13.132;2022-11-04T00:02:35;9.80;99.90
7159;DHT22;63175;52.374;13.132;2022-11-04T00:05:04;9.70;99.90
7159;DHT22;63175;52.374;13.132;2022-11-04T00:07:31;9.80;99.90
7159;DHT22;63175;52.374;13.132;2022-11-04T00:10:15;9.80;99.90
7159;DHT22;63175;52.374;13.132;2022-11-04T00:13:02;9.80;99.90
7159;DHT22;63175;52.374;13.132;2022-11-04T00:15:28;9.80;99.90
7159;DHT22;63175;52.374;13.132;2022-11-04T00:18:12;9.70;99.90
7159;DHT22;63175;52.374;13.132;2022-11-04T00:20:40;9.70;99.90
7159;DHT22;63175;52.374;13.132;2022-11-04T00:23:25;9.80;99.90
7159;DHT22;63175;52.374;13.132;2022-11-04T00:26:09;9.70;99.90
7159;DHT22;63175;52.374;13.132;2022-11-04T00:28:54;9.70;99.90
7159;DHT22;63175;52.374;13.132;2022-11-04T00:31:20;9.80;99.90
7159;DHT22;63175;52.374;13.132;2022-11-04T00:34:05;9.70;99.90
7159;DHT22;63175;52.374;13.132;2022-11-04T00:36:33;9.70;99.90
7159;DHT22;63175;52.374;13.132;2022-11-04T00:39:00;9.80;99.90
7159;DHT22;63175;52.374;13.132;2022-11-04T00:41:27;9.70;99.90
7159;DHT22;63175;52.374;13.132;2022-11-04T00:43:56;9.70;99.90
7159;DHT22;63175;52.374;13.132;2022-11-04T00:46:24;9.80;99.90
7159;DHT22;63175;52.374;13.132;2022-11-04T00:48:51;9.70;99.90
7159;DHT22;63175;52.374;13.132;2022-11-04T00:51:17;9.70;99.90
7159;DHT22;63175;52.374;13.132;2022-11-04T00:53:47;9.70;99.90
7159;DHT22;63175;52.374;13.132;2022-11-04T00:56:14;9.70;99.90
7159;DHT22;63175;52.374;13.132;2022-11-04T00:58:41;9.70;99.90
7159;DHT22;63175;52.374;13.132;2022-11-04T01:01:09;9.70;99.90
7159;DHT22;63175;52.374;13.132;2022-11-04T01:03:36;9.70;99.90
7159;DHT22;63175;52.374;13.132;2022-11-04T01:06:03;9.60;99.90
7159;DHT22;63175;52.374;13.132;2022-11-04T01:08:30;9.60;99.90
7159;DHT22;63175;52.374;13.132;2022-11-04T01:11:01;9.60;99.90
7159;DHT22;63175;52.374;13.132;2022-11-04T01:13:28;9.60;99.90
7159;DHT22;63175;52.374;13.132;2022-11-04T01:15:57;9.60;99.90
7159;DHT22;63175;52.374;13.132;2022-11-04T01:18:24;9.50;99.90
7159;DHT22;63175;52.374;13.132;2022-11-04T01:20:51;9.50;99.90
7159;DHT22;63175;52.374;13.132;2022-11-04T01:23:18;9.50;99.90
7159;DHT22;63175;52.374;13.132;2022-11-04T01:25:45;9.50;99.90
7159;DHT22;63175;52.374;13.132;2022-11-04T01:28:13;9.50;99.90
7159;DHT22;63175;52.374;13.132;2022-11-04T01:30:41;9.50;99.90
7159;DHT22;63175;52.374;13.132;2022-11-04T01:33:07;9.50;99.90
7159;DHT22;63175;52.374;13.132;2022-11-04T01:35:34;9.50;99.90
7159;DHT22;63175;52.374;13.132;2022-11-04T01:38:02;9.50;99.90
7159;DHT22;63175;52.374;13.132;2022-11-04T01:40:35;9.40;99.90
7159;DHT22;63175;52.374;13.132;2022-11-04T01:43:02;9.40;99.90
7159;DHT22;63175;52.374;13.132;2022-11-04T01:45:31;9.40;99.90
7159;DHT22;63175;52.374;13.132;2022-11-04T01:48:00;9.50;99.90
7159;DHT22;63175;52.374;13.132;2022-11-04T01:50:31;9.40;99.90
7159;DHT22;63175;52.374;13.132;2022-11-04T01:53:03;9.50;99.90
7159;DHT22;63175;52.374;13.132;2022-11-04T01:55:33;9.50;99.90
7159;DHT22;63175;52.374;13.132;2022-11-04T01:58:04;9.40;99.90
7159;DHT22;63175;52.374;13.132;2022-11-04T02:00:33;9.50;99.90
7159;DHT22;63175;52.374;13.132;2022-11-04T02:03:05;9.40;99.90
7159;DHT22;63175;52.374;13.132;2022-11-04T02:05:33;9.40;99.90
7159;DHT22;63175;52.374;13.132;2022-11-04T02:08:02;9.50;99.90
7159;DHT22;63175;52.374;13.132;2022-11-04T02:10:30;9.50;99.90
7159;DHT22;63175;52.374;13.132;2022-11-04T02:13:00;9.40;99.90
7159;DHT22;63175;52.374;13.132;2022-11-04T02:15:34;9.50;99.90
7159;DHT22;63175;52.374;13.132;2022-11-04T02:18:27;9.40;99.90
7159;DHT22;63175;52.374;13.132;2022-11-04T02:21:24;9.50;99.90
7159;DHT22;63175;52.374;13.132;2022-11-04T02:24:23;9.40;99.90
7159;DHT22;63175;52.374;13.132;2022-11-04T02:30:04;9.50;99.90
7159;DHT22;63175;52.374;13.132;2022-11-04T02:32:54;9.50;99.90
7159;DHT22;63175;52.374;13.132;2022-11-04T02:35:29;9.50;99.90
7159;DHT22;63175;52.374;13.132;2022-11-04T02:38:07;9.50;99.90
7159;DHT22;63175;52.374;13.132;2022-11-04T02:40:40;9.50;99.90
7159;DHT22;63175;52.374;13.132;2022-11-04T02:43:14;9.50;99.90
7159;DHT22;63175;52.374;13.132;2022-11-04T02:45:49;9.50;99.90
7159;DHT22;63175;52.374;13.132;2022-11-04T02:48:20;9.40;99.90
7159;DHT22;63175;52.374;13.132;2022-11-04T02:50:53;9.40;99.90
7159;DHT22;63175;52.374;13.132;2022-11-04T02:53:25;9.40;99.90
7159;DHT22;63175;52.374;13.132;2022-11-04T02:55:55;9.50;99.90
7159;DHT22;63175;52.374;13.132;2022-11-04T02:58:26;9.50;99.90
7159;DHT22;63175;52.374;13.132;2022-11-04T03:00:57;9.50;99.90
7159;DHT22;63175;52.374;13.132;2022-11-04T03:03:28;9.50;99.90
7159;DHT22;63175;52.374;13.132;2022-11-04T03:05:57;9.50;99.90
7159;DHT22;63175;52.374;13.132;2022-11-04T03:08:29;9.50;99.90
7159;DHT22;63175;52.374;13.132;2022-11-04T03:11:01;9.50;99.90
7159;DHT22;63175;52.374;13.132;2022-11-04T03:13:33;9.50;99.90
7159;DHT22;63175;52.374;13.132;2022-11-04T03:16:08;9.50;99.90
7159;DHT22;63175;52.374;13.132;2022-11-04T03:18:42;9.50;99.90
7159;DHT22;63175;52.374;13.132;2022-11-04T03:21:14;9.50;99.90
7159;DHT22;63175;52.374;13.132;2022-11-04T03:23:43;9.50;99.90
7159;DHT22;63175;52.374;13.132;2022-11-04T03:26:16;9.50;99.90
7159;DHT22;63175;52.374;13.132;2022-11-04T03:28:50;9.50;99.90
7159;DHT22;63175;52.374;13.132;2022-11-04T03:31:23;9.50;99.90
7159;DHT22;63175;52.374;13.132;2022-11-04T03:33:54;9.50;99.90
7159;DHT22;63175;52.374;13.132;2022-11-04T03:36:22;9.50;99.90
7159;DHT22;63175;52.374;13.132;2022-11-04T03:38:49;9.50;99.90
7159;DHT22;63175;52.374;13.132;2022-11-04T03:41:22;9.40;99.90
7159;DHT22;63175;52.374;13.132;2022-11-04T03:43:50;9.40;99.90
7159;DHT22;63175;52.374;13.132;2022-11-04T03:46:17;9.40;99.90
7159;DHT22;63175;52.374;13.132;2022-11-04T03:48:45;9.40;99.90
7159;DHT22;63175;52.374;13.132;2022-11-04T03:51:12;9.40;99.90
7159;DHT22;63175;52.374;13.132;2022-11-04T03:53:39;9.40;99.90
7159;DHT22;63175;52.374;13.132;2022-11-04T03:56:28;9.40;99.90
7159;DHT22;63175;52.374;13.132;2022-11-04T03:59:09;9.40;99.90
7159;DHT22;63175;52.374;13.132;2022-11-04T04:01:44;9.40;99.90
7159;DHT22;63175;52.374;13.132;2022-11-04T04:04:19;9.40;99.90
7159;DHT22;63175;52.374;13.132;2022-11-04T04:06:50;9.40;99.90
7159;DHT22;63175;52.374;13.132;2022-11-04T04:09:21;9.40;99.90
7159;DHT22;63175;52.374;13.132;2022-11-04T04:11:52;9.40;99.90
7159;DHT22;63175;52.374;13.132;2022-11-04T04:14:26;9.40;99.90
7159;DHT22;63175;52.374;13.132;2022-11-04T04:17:12;9.40;99.90
7159;DHT22;63175;52.374;13.132;2022-11-04T04:19:47;9.40;99.90
7159;DHT22;63175;52.374;13.132;2022-11-04T04:22:18;9.40;99.90
7159;DHT22;63175;52.374;13.132;2022-11-04T04:24:48;9.40;99.90
7159;DHT22;63175;52.374;13.132;2022-11-04T04:27:33;9.40;99.90
7159;DHT22;63175;52.374;13.132;2022-11-04T04:30:03;9.50;99.90
7159;DHT22;63175;52.374;13.132;2022-11-04T04:32:35;9.40;99.90
7159;DHT22;63175;52.374;13.132;2022-11-04T04:35:05;9.50;99.90
7159;DHT22;63175;52.374;13.132;2022-11-04T04:37:52;9.50;99.90
7159;DHT22;63175;52.374;13.132;2022-11-04T04:40:23;9.40;99.90
7159;DHT22;63175;52.374;13.132;2022-11-04T04:43:13;9.50;99.90
7159;DHT22;63175;52.374;13.132;2022-11-04T04:46:01;9.50;99.90
7159;DHT22;63175;52.374;13.132;2022-11-04T04:48:28;9.40;99.90
7159;DHT22;63175;52.374;13.132;2022-11-04T04:50:56;9.40;99.90
7159;DHT22;63175;52.374;13.132;2022-11-04T04:53:26;9.40;99.90
7159;DHT22;63175;52.374;13.132;2022-11-04T04:55:53;9.40;99.90
7159;DHT22;63175;52.374;13.132;2022-11-04T04:58:20;9.40;99.90
7159;DHT22;63175;52.374;13.132;2022-11-04T05:00:47;9.40;99.90
7159;DHT22;63175;52.374;13.132;2022-11-04T05:03:14;9.40;99.90
7159;DHT22;63175;52.374;13.132;2022-11-04T05:05:41;9.40;99.90
7159;DHT22;63175;52.374;13.132;2022-11-04T05:08:09;9.40;99.90
7159;DHT22;63175;52.374;13.132;2022-11-04T05:10:36;9.40;99.90
7159;DHT22;63175;52.374;13.132;2022-11-04T05:13:03;9.40;99.90
7159;DHT22;63175;52.374;13.132;2022-11-04T05:15:47;9.40;99.90
7159;DHT22;63175;52.374;13.132;2022-11-04T05:18:14;9.50;99.90
7159;DHT22;63175;52.374;13.132;2022-11-04T05:20:41;9.50;99.90
7159;DHT22;63175;52.374;13.132;2022-11-04T05:23:09;9.50;99.90
7159;DHT22;63175;52.374;13.132;2022-11-04T05:25:36;9.50;99.90
7159;DHT22;63175;52.374;13.132;2022-11-04T05:28:04;9.60;99.90
7159;DHT22;63175;52.374;13.132;2022-11-04T05:30:31;9.60;99.90
7159;DHT22;63175;52.374;13.132;2022-11-04T05:32:59;9.60;99.90
7159;DHT22;63175;52.374;13.132;2022-11-04T05:35:26;9.60;99.90
7159;DHT22;63175;52.374;13.132;2022-11-04T05:37:54;9.60;99.90
7159;DHT22;63175;52.374;13.132;2022-11-04T05:40:22;9.60;99.90
7159;DHT22;63175;52.374;13.132;2022-11-04T05:42:49;9.60;99.90
7159;DHT22;63175;52.374;13.132;2022-11-04T05:45:16;9.60;99.90
7159;DHT22;63175;52.374;13.132;2022-11-04T05:47:43;9.70;99.90
7159;DHT22;63175;52.374;13.132;2022-11-04T05:50:10;9.60;99.90
7159;DHT22;63175;52.374;13.132;2022-11-04T05:52:37;9.70;99.90
7159;DHT22;63175;52.374;13.132;2022-11-04T05:55:05;9.70;99.90
7159;DHT22;63175;52.374;13.132;2022-11-04T05:57:33;9.70;99.90
7159;DHT22;63175;52.374;13.132;2022-11-04T06:00:03;9.70;99.90
7159;DHT22;63175;52.374;13.132;2022-11-04T06:02:30;9.70;99.90
7159;DHT22;63175;52.374;13.132;2022-11-04T06:04:57;9.70;99.90
7159;DHT22;63175;52.374;13.132;2022-11-04T06:07:24;9.70;99.90
7159;DHT22;63175;52.374;13.132;2022-11-04T06:09:50;9.70;99.90
7159;DHT22;63175;52.374;13.132;2022-11-04T06:12:17;9.70;99.90
7159;DHT22;63175;52.374;13.132;2022-11-04T06:14:46;9.70;99.90
7159;DHT22;63175;52.374;13.132;2022-11-04T06:17:13;9.70;99.90
7159;DHT22;63175;52.374;13.132;2022-11-04T06:19:41;9.80;99.90
7159;DHT22;63175;52.374;13.132;2022-11-04T06:22:10;9.80;99.90
7159;DHT22;63175;52.374;13.132;2022-11-04T06:24:37;9.80;99.90
7159;DHT22;63175;52.374;13.132;2022-11-04T06:27:04;9.80;99.90
7159;DHT22;63175;52.374;13.132;2022-11-04T06:29:31;9.80;99.90
7159;DHT22;63175;52.374;13.132;2022-11-04T06:31:59;9.80;99.90
7159;DHT22;63175;52.374;13.132;2022-11-04T06:34:26;9.80;99.90
7159;DHT22;63175;52.374;13.132;2022-11-04T06:36:53;9.80;99.90
7159;DHT22;63175;52.374;13.132;2022-11-04T06:39:20;9.80;99.90
7159;DHT22;63175;52.374;13.132;2022-11-04T06:41:47;9.80;99.90
7159;DHT22;63175;52.374;13.132;2022-11-04T06:44:14;9.80;99.90
7159;DHT22;63175;52.374;13.132;2022-11-04T06:46:41;9.80;99.90
7159;DHT22;63175;52.374;13.132;2022-11-04T06:49:13;9.90;99.90
7159;DHT22;63175;52.374;13.132;2022-11-04T06:51:40;9.90;99.90
7159;DHT22;63175;52.374;13.132;2022-11-04T06:54:07;9.90;99.90
7159;DHT22;63175;52.374;13.132;2022-11-04T06:56:34;9.90;99.90
7159;DHT22;63175;52.374;13.132;2022-11-04T06:59:01;9.90;99.90
7159;DHT22;63175;52.374;13.132;2022-11-04T07:01:31;9.90;99.90
7159;DHT22;63175;52.374;13.132;2022-11-04T07:03:59;9.90;99.90
7159;DHT22;63175;52.374;13.132;2022-11-04T07:06:28;10.00;99.90
7159;DHT22;63175;52.374;13.132;2022-11-04T07:08:57;10.00;99.90
7159;DHT22;63175;52.374;13.132;2022-11-04T07:11:26;10.00;99.90
7159;DHT22;63175;52.374;13.132;2022-11-04T07:13:54;10.00;99.90
7159;DHT22;63175;52.374;13.132;2022-11-04T07:16:21;10.00;99.90
7159;DHT22;63175;52.374;13.132;2022-11-04T07:18:48;10.00;99.90
7159;DHT22;63175;52.374;13.132;2022-11-04T07:21:16;10.00;99.90
7159;DHT22;63175;52.374;13.132;2022-11-04T07:23:45;10.10;99.90
7159;DHT22;63175;52.374;13.132;2022-11-04T07:26:12;10.10;99.90
7159;DHT22;63175;52.374;13.132;2022-11-04T07:28:39;10.10;99.90
7159;DHT22;63175;52.374;13.132;2022-11-04T07:31:07;10.20;99.90
7159;DHT22;63175;52.374;13.132;2022-11-04T07:33:34;10.20;99.90
7159;DHT22;63175;52.374;13.132;2022-11-04T07:36:05;10.20;99.90
7159;DHT22;63175;52.374;13.132;2022-11-04T07:38:32;10.20;99.90
7159;DHT22;63175;52.374;13.132;2022-11-04T07:41:00;10.20;99.90
7159;DHT22;63175;52.374;13.132;2022-11-04T07:43:27;10.20;99.90
7159;DHT22;63175;52.374;13.132;2022-11-04T07:45:59;10.30;99.90
7159;DHT22;63175;52.374;13.132;2022-11-04T07:48:26;10.30;99.90
7159;DHT22;63175;52.374;13.132;2022-11-04T07:50:55;10.30;99.90
7159;DHT22;63175;52.374;13.132;2022-11-04T07:53:21;10.30;99.90
7159;DHT22;63175;52.374;13.132;2022-11-04T07:55:48;10.40;99.90
7159;DHT22;63175;52.374;13.132;2022-11-04T07:58:17;10.40;99.90
7159;DHT22;63175;52.374;13.132;2022-11-04T08:00:44;10.40;99.90
7159;DHT22;63175;52.374;13.132;2022-11-04T08:03:11;10.40;99.90
7159;DHT22;63175;52.374;13.132;2022-11-04T08:05:38;10.50;99.90
7159;DHT22;63175;52.374;13.132;2022-11-04T08:08:05;10.50;99.90
7159;DHT22;63175;52.374;13.132;2022-11-04T08:10:32;10.50;99.90
7159;DHT22;63175;52.374;13.132;2022-11-04T08:12:59;10.50;99.90
7159;DHT22;63175;52.374;13.132;2022-11-04T08:15:27;10.50;99.90
7159;DHT22;63175;52.374;13.132;2022-11-04T08:17:54;10.60;99.90
7159;DHT22;63175;52.374;13.132;2022-11-04T08:20:21;10.60;99.90
7159;DHT22;63175;52.374;13.132;2022-11-04T08:22:48;10.60;99.90
7159;DHT22;63175;52.374;13.132;2022-11-04T08:25:15;10.60;99.90
7159;DHT22;63175;52.374;13.132;2022-11-04T08:27:43;10.70;99.90
7159;DHT22;63175;52.374;13.132;2022-11-04T08:30:11;10.70;99.90
7159;DHT22;63175;52.374;13.132;2022-11-04T08:32:39;10.70;99.90
7159;DHT22;63175;52.374;13.132;2022-11-04T08:35:07;10.70;99.90
7159;DHT22;63175;52.374;13.132;2022-11-04T08:37:34;10.70;99.90
7159;DHT22;63175;52.374;13.132;2022-11-04T08:40:01;10.70;99.90
7159;DHT22;63175;52.374;13.132;2022-11-04T08:42:28;10.80;99.90
7159;DHT22;63175;52.374;13.132;2022-11-04T08:44:55;10.80;99.90
7159;DHT22;63175;52.374;13.132;2022-11-04T08:47:22;10.80;99.90
7159;DHT22;63175;52.374;13.132;2022-11-04T08:49:50;10.80;99.90
7159;DHT22;63175;52.374;13.132;2022-11-04T08:52:17;10.80;99.90
7159;DHT22;63175;52.374;13.132;2022-11-04T08:54:44;10.80;99.90
7159;DHT22;63175;52.374;13.132;2022-11-04T08:57:11;10.90;99.90
7159;DHT22;63175;52.374;13.132;2022-11-04T08:59:37;10.90;99.90
7159;DHT22;63175;52.374;13.132;2022-11-04T09:02:04;10.90;99.90
7159;DHT22;63175;52.374;13.132;2022-11-04T09:04:31;10.90;99.90
7159;DHT22;63175;52.374;13.132;2022-11-04T09:07:01;10.90;99.90
7159;DHT22;63175;52.374;13.132;2022-11-04T09:09:30;10.90;99.90
7159;DHT22;63175;52.374;13.132;2022-11-04T09:11:57;10.90;99.90
7159;DHT22;63175;52.374;13.132;2022-11-04T09:14:23;10.90;99.90
7159;DHT22;63175;52.374;13.132;2022-11-04T09:16:50;11.00;99.90
7159;DHT22;63175;52.374;13.132;2022-11-04T09:19:18;11.00;99.90
7159;DHT22;63175;52.374;13.132;2022-11-04T09:21:45;11.00;99.90
7159;DHT22;63175;52.374;13.132;2022-11-04T09:24:13;11.00;99.90
7159;DHT22;63175;52.374;13.132;2022-11-04T09:26:40;11.00;99.90
7159;DHT22;63175;52.374;13.132;2022-11-04T09:29:09;11.00;99.90
7159;DHT22;63175;52.374;13.132;2022-11-04T09:31:36;11.00;99.90
7159;DHT22;63175;52.374;13.132;2022-11-04T09:34:03;11.00;99.90
7159;DHT22;63175;52.374;13.132;2022-11-04T09:36:30;11.00;99.90
7159;DHT22;63175;52.374;13.132;2022-11-04T09:38:57;11.00;99.90
7159;DHT22;63175;52.374;13.132;2022-11-04T09:41:50;11.00;99.90
7159;DHT22;63175;52.374;13.132;2022-11-04T09:44:25;11.00;99.90
7159;DHT22;63175;52.374;13.132;2022-11-04T09:46:57;11.00;99.90
7159;DHT22;63175;52.374;13.132;2022-11-04T09:49:27;11.00;99.90
7159;DHT22;63175;52.374;13.132;2022-11-04T09:51:56;11.00;99.90
7159;DHT22;63175;52.374;13.132;2022-11-04T09:54:27;11.00;99.90
7159;DHT22;63175;52.374;13.132;2022-11-04T09:56:58;11.00;99.90
7159;DHT22;63175;52.374;13.132;2022-11-04T09:59:28;11.00;99.90
7159;DHT22;63175;52.374;13.132;2022-11-04T10:02:06;11.10;99.90
7159;DHT22;63175;52.374;13.132;2022-11-04T10:04:44;11.00;99.90
7159;DHT22;63175;52.374;13.132;2022-11-04T10:07:28;11.10;99.90
7159;DHT22;63175;52.374;13.132;2022-11-04T10:10:07;11.10;99.90
7159;DHT22;63175;52.374;13.132;2022-11-04T10:12:56;11.10;99.90
7159;DHT22;63175;52.374;13.132;2022-11-04T10:18:38;11.10;99.90
7159;DHT22;63175;52.374;13.132;2022-11-04T10:21:19;11.10;99.90
7159;DHT22;63175;52.374;13.132;2022-11-04T10:23:54;11.10;99.90
7159;DHT22;63175;52.374;13.132;2022-11-04T10:26:31;11.10;99.90
7159;DHT22;63175;52.374;13.132;2022-11-04T10:29:04;11.10;99.90
7159;DHT22;63175;52.374;13.132;2022-11-04T10:31:36;11.10;99.90
7159;DHT22;63175;52.374;13.132;2022-11-04T10:34:06;11.10;99.90
7159;DHT22;63175;52.374;13.132;2022-11-04T10:36:34;11.10;99.90
7159;DHT22;63175;52.374;13.132;2022-11-04T10:39:08;11.20;99.90
7159;DHT22;63175;52.374;13.132;2022-11-04T10:41:39;11.20;99.90
7159;DHT22;63175;52.374;13.132;2022-11-04T10:44:12;11.20;99.90
7159;DHT22;63175;52.374;13.132;2022-11-04T10:46:47;11.20;99.90
7159;DHT22;63175;52.374;13.132;2022-11-04T10:49:50;11.10;99.90
7159;DHT22;63175;52.374;13.132;2022-11-04T10:52:19;11.20;99.90
7159;DHT22;63175;52.374;13.132;2022-11-04T10:54:47;11.10;99.90
7159;DHT22;63175;52.374;13.132;2022-11-04T10:57:17;11.10;99.90
7159;DHT22;63175;52.374;13.132;2022-11-04T10:59:51;11.10;99.90
7159;DHT22;63175;52.374;13.132;2022-11-04T11:02:19;11.10;99.90
7159;DHT22;63175;52.374;13.132;2022-11-04T11:05:18;11.10;99.90
7159;DHT22;63175;52.374;13.132;2022-11-04T11:07:48;11.10;99.90
7159;DHT22;63175;52.374;13.132;2022-11-04T11:10:16;11.10;99.90
7159;DHT22;63175;52.374;13.132;2022-11-04T11:12:51;11.10;99.90
7159;DHT22;63175;52.374;13.132;2022-11-04T11:15:26;11.10;99.90
7159;DHT22;63175;52.374;13.132;2022-11-04T11:17:59;11.10;99.90
7159;DHT22;63175;52.374;13.132;2022-11-04T11:20:27;11.10;99.90
7159;DHT22;63175;52.374;13.132;2022-11-04T11:22:56;11.10;99.90
7159;DHT22;63175;52.374;13.132;2022-11-04T11:25:25;11.10;99.90
7159;DHT22;63175;52.374;13.132;2022-11-04T11:27:54;11.10;99.90
7159;DHT22;63175;52.374;13.132;2022-11-04T11:30:27;11.10;99.90
7159;DHT22;63175;52.374;13.132;2022-11-04T11:32:58;11.10;99.90
7159;DHT22;63175;52.374;13.132;2022-11-04T11:35:33;11.10;99.90
7159;DHT22;63175;52.374;13.132;2022-11-04T11:38:14;11.20;99.90
7159;DHT22;63175;52.374;13.132;2022-11-04T11:40:44;11.20;99.90
7159;DHT22;63175;52.374;13.132;2022-11-04T11:43:20;11.10;99.90
7159;DHT22;63175;52.374;13.132;2022-11-04T11:45:49;11.20;99.90
7159;DHT22;63175;52.374;13.132;2022-11-04T11:48:27;11.20;99.90
7159;DHT22;63175;52.374;13.132;2022-11-04T11:50:57;11.20;99.90
7159;DHT22;63175;52.374;13.132;2022-11-04T11:53:25;11.10;99.90
7159;DHT22;63175;52.374;13.132;2022-11-04T11:56:00;11.20;99.90
7159;DHT22;63175;52.374;13.132;2022-11-04T11:58:36;11.20;99.90
7159;DHT22;63175;52.374;13.132;2022-11-04T12:01:08;11.20;99.90
7159;DHT22;63175;52.374;13.132;2022-11-04T12:03:42;11.10;99.90
7159;DHT22;63175;52.374;13.132;2022-11-04T12:06:19;11.10;99.90
7159;DHT22;63175;52.374;13.132;2022-11-04T12:11:55;11.20;99.90
7159;DHT22;63175;52.374;13.132;2022-11-04T12:14:35;11.10;99.90
7159;DHT22;63175;52.374;13.132;2022-11-04T12:17:17;11.10;99.90
7159;DHT22;63175;52.374;13.132;2022-11-04T12:19:58;11.10;99.90
7159;DHT22;63175;52.374;13.132;2022-11-04T12:22:37;11.10;99.90
7159;DHT22;63175;52.374;13.132;2022-11-04T12:25:14;11.10;99.90
7159;DHT22;63175;52.374;13.132;2022-11-04T12:27:48;11.10;99.90
7159;DHT22;63175;52.374;13.132;2022-11-04T12:30:19;11.10;99.90
7159;DHT22;63175;52.374;13.132;2022-11-04T12:32:56;11.10;99.90
7159;DHT22;63175;52.374;13.132;2022-11-04T12:35:39;11.10;99.90
7159;DHT22;63175;52.374;13.132;2022-11-04T12:38:24;11.10;99.90
7159;DHT22;63175;52.374;13.132;2022-11-04T12:41:01;11.10;99.90
7159;DHT22;63175;52.374;13.132;2022-11-04T12:43:38;11.10;99.90
7159;DHT22;63175;52.374;13.132;2022-11-04T12:46:12;11.20;99.90
7159;DHT22;63175;52.374;13.132;2022-11-04T12:48:56;11.20;99.90
7159;DHT22;63175;52.374;13.132;2022-11-04T12:51:34;11.10;99.90
7159;DHT22;63175;52.374;13.132;2022-11-04T12:54:28;11.20;99.90
7159;DHT22;63175;52.374;13.132;2022-11-04T12:57:07;11.20;99.90
7159;DHT22;63175;52.374;13.132;2022-11-04T12:59:58;11.20;99.90
7159;DHT22;63175;52.374;13.132;2022-11-04T13:02:30;11.20;99.90
7159;DHT22;63175;52.374;13.132;2022-11-04T13:05:00;11.20;99.90
7159;DHT22;63175;52.374;13.132;2022-11-04T13:07:32;11.20;99.90
7159;DHT22;63175;52.374;13.132;2022-11-04T13:10:05;11.20;99.90
7159;DHT22;63175;52.374;13.132;2022-11-04T13:12:36;11.20;99.90
7159;DHT22;63175;52.374;13.132;2022-11-04T13:15:13;11.20;99.90
7159;DHT22;63175;52.374;13.132;2022-11-04T13:17:42;11.20;99.90
7159;DHT22;63175;52.374;13.132;2022-11-04T13:20:19;11.20;99.90
7159;DHT22;63175;52.374;13.132;2022-11-04T13:22:50;11.20;99.90
7159;DHT22;63175;52.374;13.132;2022-11-04T13:25:26;11.20;99.90
7159;DHT22;63175;52.374;13.132;2022-11-04T13:27:54;11.20;99.90
7159;DHT22;63175;52.374;13.132;2022-11-04T13:30:29;11.20;99.90
7159;DHT22;63175;52.374;13.132;2022-11-04T13:33:00;11.20;99.90
7159;DHT22;63175;52.374;13.132;2022-11-04T13:35:37;11.20;99.90
7159;DHT22;63175;52.374;13.132;2022-11-04T13:38:08;11.20;99.90
7159;DHT22;63175;52.374;13.132;2022-11-04T13:40:45;11.20;99.90
7159;DHT22;63175;52.374;13.132;2022-11-04T13:43:24;11.20;99.90
7159;DHT22;63175;52.374;13.132;2022-11-04T13:46:16;11.20;99.90
7159;DHT22;63175;52.374;13.132;2022-11-04T13:49:02;11.20;99.90
7159;DHT22;63175;52.374;13.132;2022-11-04T13:51:40;11.20;99.90
7159;DHT22;63175;52.374;13.132;2022-11-04T13:54:24;11.20;99.90
7159;DHT22;63175;52.374;13.132;2022-11-04T13:57:08;11.20;99.90
7159;DHT22;63175;52.374;13.132;2022-11-04T13:59:36;11.20;99.90
7159;DHT22;63175;52.374;13.132;2022-11-04T14:02:24;11.20;99.90
7159;DHT22;63175;52.374;13.132;2022-11-04T14:04:52;11.20;99.90
7159;DHT22;63175;52.374;13.132;2022-11-04T14:10:43;11.20;99.90
7159;DHT22;63175;52.374;13.132;2022-11-04T14:16:39;11.20;99.90
7159;DHT22;63175;52.374;13.132;2022-11-04T14:22:47;11.20;99.90
7159;DHT22;63175;52.374;13.132;2022-11-04T14:25:24;11.20;99.90
7159;DHT22;63175;52.374;13.132;2022-11-04T14:27:52;11.20;99.90
7159;DHT22;63175;52.374;13.132;2022-11-04T14:33:34;11.20;99.90
7159;DHT22;63175;52.374;13.132;2022-11-04T14:36:29;11.20;99.90
7159;DHT22;63175;52.374;13.132;2022-11-04T14:39:01;11.20;99.90
7159;DHT22;63175;52.374;13.132;2022-11-04T14:41:49;11.20;99.90
7159;DHT22;63175;52.374;13.132;2022-11-04T14:44:34;11.20;99.90
7159;DHT22;63175;52.374;13.132;2022-11-04T14:47:12;11.20;99.90
7159;DHT22;63175;52.374;13.132;2022-11-04T14:49:45;11.20;99.90
7159;DHT22;63175;52.374;13.132;2022-11-04T14:52:19;11.20;99.90
7159;DHT22;63175;52.374;13.132;2022-11-04T14:54:46;11.20;99.90
7159;DHT22;63175;52.374;13.132;2022-11-04T14:57:16;11.20;99.90
7159;DHT22;63175;52.374;13.132;2022-11-04T14:59:43;11.20;99.90
7159;DHT22;63175;52.374;13.132;2022-11-04T15:02:15;11.10;99.90
7159;DHT22;63175;52.374;13.132;2022-11-04T15:04:48;11.10;99.90
7159;DHT22;63175;52.374;13.132;2022-11-04T15:07:25;11.10;99.90
7159;DHT22;63175;52.374;13.132;2022-11-04T15:09:52;11.10;99.90
7159;DHT22;63175;52.374;13.132;2022-11-04T15:12:19;11.10;99.90
7159;DHT22;63175;52.374;13.132;2022-11-04T15:15:22;11.10;99.90
7159;DHT22;63175;52.374;13.132;2022-11-04T15:17:51;11.10;99.90
7159;DHT22;63175;52.374;13.132;2022-11-04T15:20:22;11.10;99.90
7159;DHT22;63175;52.374;13.132;2022-11-04T15:22:51;11.10;99.90
7159;DHT22;63175;52.374;13.132;2022-11-04T15:25:20;11.10;99.90
7159;DHT22;63175;52.374;13.132;2022-11-04T15:27:48;11.10;99.90
7159;DHT22;63175;52.374;13.132;2022-11-04T15:30:19;11.10;99.90
7159;DHT22;63175;52.374;13.132;2022-11-04T15:32:56;11.10;99.90
7159;DHT22;63175;52.374;13.132;2022-11-04T15:35:27;11.10;99.90
7159;DHT22;63175;52.374;13.132;2022-11-04T15:37:54;11.00;99.90
7159;DHT22;63175;52.374;13.132;2022-11-04T15:40:24;11.10;99.90
7159;DHT22;63175;52.374;13.132;2022-11-04T15:42:52;11.10;99.90
7159;DHT22;63175;52.374;13.132;2022-11-04T15:45:30;11.00;99.90
7159;DHT22;63175;52.374;13.132;2022-11-04T15:48:23;11.00;99.90
7159;DHT22;63175;52.374;13.132;2022-11-04T15:51:09;11.00;99.90
7159;DHT22;63175;52.374;13.132;2022-11-04T15:53:47;11.00;99.90
7159;DHT22;63175;52.374;13.132;2022-11-04T15:56:16;11.00;99.90
7159;DHT22;63175;52.374;13.132;2022-11-04T15:58:45;11.00;99.90
7159;DHT22;63175;52.374;13.132;2022-11-04T16:01:13;11.00;99.90
7159;DHT22;63175;52.374;13.132;2022-11-04T16:03:45;11.00;99.90
7159;DHT22;63175;52.374;13.132;2022-11-04T16:06:14;11.00;99.90
7159;DHT22;63175;52.374;13.132;2022-11-04T16:08:41;11.00;99.90
7159;DHT22;63175;52.374;13.132;2022-11-04T16:11:11;11.00;99.90
7159;DHT22;63175;52.374;13.132;2022-11-04T16:13:38;11.00;99.90
7159;DHT22;63175;52.374;13.132;2022-11-04T16:16:14;10.90;99.90
7159;DHT22;63175;52.374;13.132;2022-11-04T16:18:49;10.90;99.90
7159;DHT22;63175;52.374;13.132;2022-11-04T16:21:25;10.90;99.90
7159;DHT22;63175;52.374;13.132;2022-11-04T16:23:55;10.90;99.90
7159;DHT22;63175;52.374;13.132;2022-11-04T16:26:24;10.90;99.90
7159;DHT22;63175;52.374;13.132;2022-11-04T16:28:53;10.90;99.90